Time;durP1;ratioP1;P1;durP2;ratioP2;P2;SDS_P1;SDS_P2;PMS_P1;PMS_P2;Temp;Humidity;BMP_temperature;BMP_pressure;BME280_temperature;BME280_humidity;BME280_pressure;Samples;Min_cycle;Max_cycle;Signal;HPM_P1;HPM_P2
2023/12/26 00:00:34;;;;;;;2.70;2.10;;;10.40;99.90;;;;;;4997995;28;20457;-63
2023/12/26 00:03:06;;;;;;;3.47;2.17;;;10.40;99.90;;;;;;5000945;28;20460;-68
2023/12/26 00:05:33;;;;;;;2.80;2.00;;;10.40;99.90;;;;;;5000946;28;20461;-69
2023/12/26 00:08:03;;;;;;;2.60;2.00;;;10.30;99.90;;;;;;5000820;28;20821;-69
2023/12/26 00:10:32;;;;;;;2.47;1.70;;;10.30;99.90;;;;;;5001141;28;20504;-66
2023/12/26 00:13:01;;;;;;;2.50;1.90;;;10.30;99.90;;;;;;5000614;28;20887;-66
2023/12/26 00:15:28;;;;;;;2.50;1.70;;;10.40;99.90;;;;;;5000162;28;20874;-67
2023/12/26 00:17:58;;;;;;;4.20;2.00;;;10.30;99.90;;;;;;5000451;28;20461;-66
2023/12/26 00:20:26;;;;;;;2.37;1.67;;;10.30;99.90;;;;;;4960907;29;20455;-68
2023/12/26 00:22:53;;;;;;;2.93;1.80;;;10.40;99.90;;;;;;4961899;28;20462;-64
2023/12/26 00:25:21;;;;;;;3.00;2.30;;;10.30;99.90;;;;;;4961789;28;20469;-67
2023/12/26 00:27:49;;;;;;;3.43;1.70;;;10.30;99.90;;;;;;4961931;29;20462;-64
2023/12/26 00:30:17;;;;;;;2.93;1.97;;;10.30;99.90;;;;;;4961781;28;20506;-67
2023/12/26 00:32:44;;;;;;;3.57;2.10;;;10.30;99.90;;;;;;4962496;28;20893;-68
2023/12/26 00:35:13;;;;;;;4.30;2.10;;;10.30;99.90;;;;;;4961937;28;20470;-67
2023/12/26 00:37:40;;;;;;;2.87;1.80;;;10.30;99.90;;;;;;4961792;28;20467;-63
2023/12/26 00:40:09;;;;;;;2.20;1.70;;;10.30;99.90;;;;;;4961043;28;20892;-66
2023/12/26 00:42:37;;;;;;;3.83;2.00;;;10.30;99.90;;;;;;4961663;28;20843;-66
2023/12/26 00:45:08;;;;;;;2.70;1.70;;;10.30;99.90;;;;;;4961432;28;20462;-66
2023/12/26 00:47:39;;;;;;;2.47;1.90;;;10.30;99.90;;;;;;4961579;28;20473;-66
2023/12/26 00:50:11;;;;;;;2.57;1.60;;;10.30;99.90;;;;;;4961156;29;20498;-68
2023/12/26 00:52:41;;;;;;;2.47;1.80;;;10.30;99.90;;;;;;4961833;29;20466;-64
2023/12/26 00:55:09;;;;;;;2.40;1.60;;;10.30;99.90;;;;;;4960960;28;20462;-65
2023/12/26 00:57:37;;;;;;;2.40;1.60;;;10.30;99.90;;;;;;4960879;28;20466;-68
2023/12/26 01:00:07;;;;;;;2.70;1.70;;;10.30;99.90;;;;;;4961165;29;20522;-69
2023/12/26 01:02:34;;;;;;;3.03;1.50;;;10.30;99.90;;;;;;4961469;28;20446;-64
2023/12/26 01:05:02;;;;;;;2.30;1.50;;;10.30;99.90;;;;;;4961056;28;20943;-65
2023/12/26 01:07:29;;;;;;;2.97;1.50;;;10.30;99.90;;;;;;4960964;28;20467;-66
2023/12/26 01:09:56;;;;;;;4.13;1.50;;;10.30;99.90;;;;;;4961157;28;20550;-65
2023/12/26 01:12:24;;;;;;;2.67;1.60;;;10.30;99.90;;;;;;4960051;28;20467;-65
2023/12/26 01:14:51;;;;;;;2.53;1.70;;;10.30;99.90;;;;;;4960731;28;20466;-66
2023/12/26 01:17:20;;;;;;;2.97;1.73;;;10.30;99.90;;;;;;4960608;28;20502;-66
2023/12/26 01:19:47;;;;;;;3.27;1.30;;;10.30;99.90;;;;;;4990427;28;20488;-66
2023/12/26 01:22:15;;;;;;;2.30;1.67;;;10.20;99.90;;;;;;5000059;28;20779;-64
2023/12/26 01:24:43;;;;;;;2.20;1.47;;;10.20;99.90;;;;;;4999670;28;20499;-65
2023/12/26 01:27:10;;;;;;;2.37;1.60;;;10.20;99.90;;;;;;4999901;28;20465;-66
2023/12/26 01:29:40;;;;;;;3.50;1.50;;;10.10;99.90;;;;;;4999115;28;20492;-66
2023/12/26 01:32:08;;;;;;;2.27;1.63;;;10.10;99.90;;;;;;4999778;28;20467;-66
2023/12/26 01:34:36;;;;;;;2.80;1.73;;;10.10;99.90;;;;;;4999733;28;20746;-67
2023/12/26 01:37:04;;;;;;;2.57;1.57;;;10.00;99.90;;;;;;4999000;28;20473;-67
2023/12/26 01:39:31;;;;;;;2.40;1.50;;;9.90;99.90;;;;;;4999390;28;20887;-66
2023/12/26 01:41:59;;;;;;;2.30;1.53;;;9.90;99.90;;;;;;4998917;28;20468;-66
2023/12/26 01:44:27;;;;;;;2.40;1.60;;;9.80;99.90;;;;;;4999279;28;20515;-67
2023/12/26 01:46:55;;;;;;;3.20;1.57;;;9.80;99.90;;;;;;4999033;28;20465;-66
2023/12/26 01:49:22;;;;;;;3.30;2.00;;;9.70;99.90;;;;;;4999019;28;20599;-67
2023/12/26 01:51:52;;;;;;;2.70;1.80;;;9.70;99.90;;;;;;4999054;28;20515;-67
2023/12/26 01:54:21;;;;;;;3.50;1.70;;;9.70;99.90;;;;;;4999230;28;20496;-65
2023/12/26 01:56:49;;;;;;;2.50;1.80;;;9.60;99.90;;;;;;4998932;28;20548;-65
2023/12/26 01:59:17;;;;;;;3.07;1.60;;;9.60;99.90;;;;;;4998586;28;20461;-67
2023/12/26 02:01:44;;;;;;;2.43;1.80;;;9.60;99.90;;;;;;4999090;28;20464;-67
2023/12/26 02:04:12;;;;;;;3.50;1.47;;;9.50;99.90;;;;;;4998751;28;20523;-67
2023/12/26 02:06:40;;;;;;;2.87;1.80;;;9.50;99.90;;;;;;4999196;28;20464;-66
2023/12/26 02:09:10;;;;;;;3.43;1.70;;;9.50;99.90;;;;;;4999276;28;20515;-65
2023/12/26 02:11:39;;;;;;;2.40;1.70;;;9.50;99.90;;;;;;4998908;28;20898;-65
2023/12/26 02:14:09;;;;;;;2.33;1.70;;;9.50;99.90;;;;;;4998946;28;20465;-70
2023/12/26 02:16:39;;;;;;;2.70;1.70;;;9.50;99.90;;;;;;4998533;28;20465;-67
2023/12/26 02:19:07;;;;;;;3.47;1.53;;;9.50;99.90;;;;;;4998210;28;20759;-67
2023/12/26 02:21:34;;;;;;;5.80;1.50;;;9.50;99.90;;;;;;4998779;28;20515;-66
2023/12/26 02:24:03;;;;;;;3.80;1.60;;;9.40;99.90;;;;;;4998564;28;20976;-67
2023/12/26 02:26:34;;;;;;;2.90;1.27;;;9.40;99.90;;;;;;4999075;28;20871;-67
2023/12/26 02:29:03;;;;;;;2.77;1.63;;;9.40;99.90;;;;;;4998505;28;20997;-67
2023/12/26 02:31:31;;;;;;;3.60;1.60;;;9.40;99.90;;;;;;4999366;28;20767;-67
2023/12/26 02:33:58;;;;;;;2.70;1.70;;;9.40;99.90;;;;;;4998841;28;20461;-69
2023/12/26 02:36:26;;;;;;;3.13;1.83;;;9.40;99.90;;;;;;4999090;28;20456;-66
2023/12/26 02:38:54;;;;;;;2.43;1.77;;;9.40;99.90;;;;;;4998210;28;20464;-67
2023/12/26 02:41:22;;;;;;;2.90;1.97;;;9.30;99.90;;;;;;4998165;28;20456;-66
2023/12/26 02:43:50;;;;;;;3.33;1.90;;;9.40;99.90;;;;;;4998299;28;20461;-67
2023/12/26 02:46:17;;;;;;;3.80;1.87;;;9.40;99.90;;;;;;4998242;28;20461;-68
2023/12/26 02:48:44;;;;;;;4.37;1.70;;;9.40;99.90;;;;;;4998595;28;20461;-67
2023/12/26 02:51:12;;;;;;;2.47;1.60;;;9.30;99.90;;;;;;4997554;28;20503;-67
2023/12/26 02:53:39;;;;;;;2.33;1.73;;;9.40;99.90;;;;;;4998025;28;20465;-66
2023/12/26 02:56:07;;;;;;;3.43;1.70;;;9.30;99.90;;;;;;4998761;28;20467;-69
2023/12/26 02:58:36;;;;;;;3.10;1.57;;;9.30;99.90;;;;;;4997730;28;20823;-72
2023/12/26 03:01:03;;;;;;;5.43;1.93;;;9.30;99.90;;;;;;4997861;28;20461;-68
2023/12/26 03:03:31;;;;;;;2.60;1.47;;;9.30;99.90;;;;;;4998576;28;20460;-66
2023/12/26 03:05:58;;;;;;;2.30;1.50;;;9.40;99.90;;;;;;4998319;28;20512;-69
2023/12/26 03:08:25;;;;;;;3.27;1.93;;;9.30;99.90;;;;;;4998102;28;20464;-71
2023/12/26 03:10:53;;;;;;;4.70;1.90;;;9.30;99.90;;;;;;4997927;28;20561;-71
2023/12/26 03:13:20;;;;;;;4.43;1.60;;;9.40;99.90;;;;;;4998027;28;20468;-66
2023/12/26 03:15:49;;;;;;;3.80;2.30;;;9.30;99.90;;;;;;4997704;28;20468;-66
2023/12/26 03:18:16;;;;;;;2.57;1.80;;;9.30;99.90;;;;;;4997275;28;20461;-66
2023/12/26 03:20:43;;;;;;;3.57;2.37;;;9.30;99.90;;;;;;4998372;28;20484;-67
2023/12/26 03:23:11;;;;;;;2.90;2.07;;;9.30;99.90;;;;;;4997687;28;20953;-67
2023/12/26 03:25:38;;;;;;;3.00;2.00;;;9.30;99.90;;;;;;4998599;28;20515;-71
2023/12/26 03:28:06;;;;;;;2.90;2.07;;;9.30;99.90;;;;;;4998136;28;20532;-67
2023/12/26 03:30:34;;;;;;;4.97;2.27;;;9.30;99.90;;;;;;4997907;28;20844;-66
2023/12/26 03:33:02;;;;;;;2.70;2.10;;;9.30;99.90;;;;;;4997732;28;20929;-66
2023/12/26 03:35:30;;;;;;;3.23;2.63;;;9.30;99.90;;;;;;4997552;28;20461;-65
2023/12/26 03:37:57;;;;;;;2.77;2.13;;;9.30;99.90;;;;;;5001901;28;20740;-64
2023/12/26 03:40:25;;;;;;;4.47;2.97;;;9.30;99.90;;;;;;5001497;28;20515;-64
2023/12/26 03:42:52;;;;;;;2.87;2.53;;;9.30;99.90;;;;;;5001007;28;20511;-66
2023/12/26 03:45:19;;;;;;;2.90;2.60;;;9.30;99.90;;;;;;5001495;28;20464;-64
2023/12/26 03:47:47;;;;;;;3.73;2.77;;;9.30;99.90;;;;;;5001353;28;20964;-66
2023/12/26 03:50:16;;;;;;;4.90;3.00;;;9.30;99.90;;;;;;5001403;28;20515;-66
2023/12/26 03:52:43;;;;;;;3.93;2.70;;;9.30;99.90;;;;;;5001275;28;20534;-65
2023/12/26 03:55:12;;;;;;;4.40;2.87;;;9.30;99.90;;;;;;5001199;28;20467;-66
2023/12/26 03:57:41;;;;;;;4.40;3.00;;;9.30;99.90;;;;;;5000928;28;20464;-67
2023/12/26 04:00:10;;;;;;;3.57;2.80;;;9.30;99.90;;;;;;5000927;28;20755;-65
2023/12/26 04:02:37;;;;;;;3.20;2.70;;;9.30;99.90;;;;;;5001411;28;20465;-65
2023/12/26 04:05:05;;;;;;;4.80;3.13;;;9.30;99.90;;;;;;5000750;28;20461;-64
2023/12/26 04:07:34;;;;;;;4.00;2.67;;;9.30;99.90;;;;;;5000850;28;20464;-70
2023/12/26 04:10:02;;;;;;;4.13;2.57;;;9.30;99.90;;;;;;5000336;28;20493;-65
2023/12/26 04:12:31;;;;;;;7.33;2.70;;;9.30;99.90;;;;;;5001104;28;20465;-66
2023/12/26 04:14:59;;;;;;;3.10;2.30;;;9.30;99.90;;;;;;5001029;28;20476;-67
2023/12/26 04:17:26;;;;;;;4.20;2.10;;;9.30;99.90;;;;;;5000822;28;20468;-68
2023/12/26 04:19:53;;;;;;;4.00;2.90;;;9.30;99.90;;;;;;5001139;28;20492;-67
2023/12/26 04:22:21;;;;;;;3.33;2.30;;;9.30;99.90;;;;;;5001769;28;20464;-66
2023/12/26 04:24:49;;;;;;;3.93;2.70;;;9.30;99.90;;;;;;5000771;28;20465;-66
2023/12/26 04:27:17;;;;;;;3.70;2.27;;;9.20;99.90;;;;;;5000448;28;20523;-65
2023/12/26 04:29:44;;;;;;;3.70;2.40;;;9.20;99.90;;;;;;5000028;28;20469;-66
2023/12/26 04:32:12;;;;;;;3.20;2.23;;;9.30;99.90;;;;;;5000969;28;20758;-66
2023/12/26 04:34:39;;;;;;;4.03;3.20;;;9.30;99.90;;;;;;5000781;28;20519;-71
2023/12/26 04:37:07;;;;;;;4.20;2.30;;;9.20;99.90;;;;;;4999882;28;20495;-65
2023/12/26 04:39:34;;;;;;;5.23;2.90;;;9.30;99.90;;;;;;5000355;28;20519;-66
2023/12/26 04:42:03;;;;;;;5.57;2.87;;;9.30;99.90;;;;;;5000182;28;20457;-67
2023/12/26 04:44:31;;;;;;;5.53;2.87;;;9.30;99.90;;;;;;5000121;28;20465;-68
2023/12/26 04:46:58;;;;;;;3.57;2.10;;;9.30;99.90;;;;;;4999957;28;20815;-66
2023/12/26 04:49:26;;;;;;;4.43;2.50;;;9.30;99.90;;;;;;5000236;28;20941;-67
2023/12/26 04:51:53;;;;;;;4.50;2.30;;;9.30;99.90;;;;;;5000067;28;20500;-65
2023/12/26 04:54:20;;;;;;;2.90;2.30;;;9.30;99.90;;;;;;5000213;28;20514;-67
2023/12/26 04:56:49;;;;;;;2.87;2.13;;;9.30;99.90;;;;;;5001251;28;20461;-67
2023/12/26 04:59:17;;;;;;;4.00;2.00;;;9.30;99.90;;;;;;5001323;28;20457;-67
2023/12/26 05:01:45;;;;;;;4.60;2.20;;;9.20;99.90;;;;;;4999981;28;20519;-67
2023/12/26 05:04:12;;;;;;;2.93;2.33;;;9.20;99.90;;;;;;5001167;28;20465;-66
2023/12/26 05:06:39;;;;;;;4.63;2.47;;;9.30;99.90;;;;;;5002084;28;20756;-67
2023/12/26 05:09:07;;;;;;;3.20;2.03;;;9.20;99.90;;;;;;5001997;28;20465;-67
2023/12/26 05:11:34;;;;;;;7.40;2.77;;;9.30;99.90;;;;;;5001219;28;20492;-67
2023/12/26 05:14:03;;;;;;;3.50;2.07;;;9.20;99.90;;;;;;5001388;28;20466;-69
2023/12/26 05:16:32;;;;;;;3.67;1.90;;;9.20;99.90;;;;;;5000997;28;20519;-70
2023/12/26 05:19:00;;;;;;;2.70;1.50;;;8.90;99.90;;;;;;5000011;28;20580;-67
2023/12/26 05:21:27;;;;;;;3.57;1.77;;;8.70;99.90;;;;;;4999750;28;20461;-66
2023/12/26 05:23:54;;;;;;;4.00;1.40;;;8.80;99.90;;;;;;4999445;28;20469;-66
2023/12/26 05:26:22;;;;;;;3.03;1.40;;;8.70;99.90;;;;;;4999963;28;20469;-66
2023/12/26 05:28:49;;;;;;;4.50;1.50;;;8.70;99.90;;;;;;4999637;28;20801;-66
2023/12/26 05:31:20;;;;;;;4.27;1.90;;;8.70;99.90;;;;;;4999064;28;20523;-68
2023/12/26 05:33:49;;;;;;;4.00;1.90;;;8.70;99.90;;;;;;4999724;28;20479;-65
2023/12/26 05:36:16;;;;;;;4.03;2.07;;;8.70;99.90;;;;;;4999300;28;20519;-64
2023/12/26 05:38:44;;;;;;;4.07;1.90;;;8.70;99.90;;;;;;5000494;28;20511;-67
2023/12/26 05:41:14;;;;;;;4.00;1.63;;;8.70;99.90;;;;;;5001122;28;20897;-67
2023/12/26 05:43:41;;;;;;;4.10;1.50;;;8.70;99.90;;;;;;5002026;28;20473;-66
2023/12/26 05:46:09;;;;;;;2.30;1.40;;;8.70;99.90;;;;;;5001177;28;20461;-67
2023/12/26 05:48:37;;;;;;;3.57;1.70;;;8.70;99.90;;;;;;5000800;28;20501;-70
2023/12/26 05:51:07;;;;;;;3.77;1.77;;;8.70;99.90;;;;;;5000783;28;20497;-67
2023/12/26 05:53:35;;;;;;;4.23;1.87;;;8.60;99.90;;;;;;5001495;28;20491;-66
2023/12/26 05:56:03;;;;;;;4.30;2.50;;;8.60;99.90;;;;;;5000901;28;20579;-69
2023/12/26 05:58:30;;;;;;;3.70;2.60;;;8.60;99.90;;;;;;4998962;28;20848;-66
2023/12/26 06:00:57;;;;;;;2.80;1.70;;;8.60;99.90;;;;;;4998839;28;20468;-66
2023/12/26 06:03:25;;;;;;;3.70;2.00;;;8.70;99.90;;;;;;4999946;28;20515;-68
2023/12/26 06:05:52;;;;;;;2.60;1.80;;;8.70;99.90;;;;;;5000855;28;20754;-70
2023/12/26 06:08:21;;;;;;;3.30;2.17;;;8.80;99.90;;;;;;4999152;28;20741;-69
2023/12/26 06:10:49;;;;;;;3.73;2.10;;;8.80;99.90;;;;;;4999438;28;20980;-67
2023/12/26 06:13:16;;;;;;;4.20;2.60;;;8.90;99.90;;;;;;4998549;28;20468;-65
2023/12/26 06:15:43;;;;;;;4.50;2.30;;;8.90;99.90;;;;;;5006674;28;20889;-65
2023/12/26 06:18:11;;;;;;;2.80;2.00;;;9.00;99.90;;;;;;5017326;28;20522;-65
2023/12/26 06:20:38;;;;;;;2.50;1.70;;;9.00;99.90;;;;;;5018161;28;20471;-65
2023/12/26 06:23:05;;;;;;;2.97;1.70;;;9.00;99.90;;;;;;5017839;28;20823;-66
2023/12/26 06:25:34;;;;;;;2.77;1.90;;;9.00;99.90;;;;;;5017156;28;20476;-64
2023/12/26 06:28:01;;;;;;;3.33;2.00;;;9.00;99.90;;;;;;5018061;28;20810;-65
2023/12/26 06:30:29;;;;;;;3.33;1.93;;;9.00;99.90;;;;;;5017569;28;20464;-66
2023/12/26 06:32:56;;;;;;;4.90;3.07;;;9.00;99.90;;;;;;5017178;28;20463;-65
2023/12/26 06:35:24;;;;;;;7.47;3.50;;;9.10;99.90;;;;;;5017521;28;20467;-65
2023/12/26 06:37:51;;;;;;;5.37;3.53;;;9.10;99.90;;;;;;5017400;28;20554;-66
2023/12/26 06:40:18;;;;;;;4.90;3.50;;;9.10;99.90;;;;;;5017779;28;20794;-66
2023/12/26 06:42:47;;;;;;;8.83;4.13;;;9.10;99.90;;;;;;5017572;28;20468;-65
2023/12/26 06:45:15;;;;;;;7.07;3.27;;;9.10;99.90;;;;;;5017125;28;20467;-65
2023/12/26 06:47:42;;;;;;;6.40;3.97;;;9.10;99.90;;;;;;5017432;28;20787;-64
2023/12/26 06:50:10;;;;;;;6.33;4.97;;;9.10;99.90;;;;;;5016710;28;20475;-65
2023/12/26 06:52:38;;;;;;;5.10;3.80;;;9.10;99.90;;;;;;5017446;28;20499;-66
2023/12/26 06:55:06;;;;;;;5.63;4.43;;;9.10;99.90;;;;;;5017137;28;20534;-64
2023/12/26 06:57:33;;;;;;;6.17;3.90;;;9.10;99.90;;;;;;5017386;28;20468;-66
2023/12/26 07:00:02;;;;;;;7.60;4.10;;;9.10;99.90;;;;;;5017106;28;20818;-66
2023/12/26 07:02:32;;;;;;;6.90;4.20;;;9.10;99.90;;;;;;5017633;28;20749;-65
2023/12/26 07:04:59;;;;;;;8.70;4.27;;;9.00;99.90;;;;;;5017071;28;20900;-66
2023/12/26 07:07:26;;;;;;;11.30;4.10;;;9.10;99.90;;;;;;5016965;28;20514;-65
2023/12/26 07:09:54;;;;;;;7.80;4.63;;;9.00;99.90;;;;;;5017960;28;20460;-67
2023/12/26 07:12:21;;;;;;;10.50;4.40;;;9.00;99.90;;;;;;5021215;28;20510;-64
2023/12/26 07:14:48;;;;;;;6.20;3.70;;;9.00;99.90;;;;;;5021106;28;20550;-66
2023/12/26 07:17:17;;;;;;;8.90;4.30;;;9.00;99.90;;;;;;5021216;28;20914;-71
2023/12/26 07:19:44;;;;;;;5.60;3.90;;;9.00;99.90;;;;;;5021072;28;20548;-65
2023/12/26 07:22:12;;;;;;;8.67;3.80;;;9.10;99.90;;;;;;5021258;28;20491;-65
2023/12/26 07:24:39;;;;;;;4.63;3.30;;;9.10;99.90;;;;;;5021546;28;20901;-66
2023/12/26 07:27:07;;;;;;;5.43;3.40;;;9.00;99.90;;;;;;5020924;28;20475;-66
2023/12/26 07:29:34;;;;;;;6.30;3.47;;;9.10;99.90;;;;;;5020783;28;20472;-67
2023/12/26 07:32:01;;;;;;;7.07;4.23;;;9.00;99.90;;;;;;5020724;28;20590;-66
2023/12/26 07:34:30;;;;;;;4.70;3.43;;;8.90;99.90;;;;;;5020520;28;20505;-66
2023/12/26 07:36:58;;;;;;;7.87;3.10;;;8.90;99.90;;;;;;5020470;28;20464;-70
2023/12/26 07:39:25;;;;;;;6.00;3.10;;;8.90;99.90;;;;;;5020600;28;20472;-67
2023/12/26 07:41:52;;;;;;;6.67;3.70;;;8.90;99.90;;;;;;5020828;28;20555;-67
2023/12/26 07:44:20;;;;;;;8.23;3.80;;;8.90;99.90;;;;;;5020966;28;20468;-66
2023/12/26 07:46:48;;;;;;;9.10;4.80;;;8.90;99.90;;;;;;5020301;28;20468;-65
2023/12/26 07:49:15;;;;;;;5.50;3.53;;;8.90;99.90;;;;;;5020301;28;20490;-65
2023/12/26 07:51:45;;;;;;;6.37;3.20;;;8.90;99.90;;;;;;5020191;28;20546;-66
2023/12/26 07:54:13;;;;;;;6.37;3.57;;;8.90;99.90;;;;;;5020823;28;20468;-65
2023/12/26 07:56:40;;;;;;;7.60;3.23;;;8.90;99.90;;;;;;5020848;28;20768;-66
2023/12/26 07:59:10;;;;;;;6.20;3.00;;;8.80;99.90;;;;;;5019579;28;20919;-65
2023/12/26 08:01:37;;;;;;;7.53;3.20;;;8.80;99.90;;;;;;5019468;28;20460;-65
2023/12/26 08:04:05;;;;;;;6.00;3.13;;;8.80;99.90;;;;;;5020108;28;20472;-65
2023/12/26 08:06:32;;;;;;;4.97;2.97;;;8.80;99.90;;;;;;5020334;28;20456;-65
2023/12/26 08:09:03;;;;;;;9.10;3.53;;;8.80;99.90;;;;;;5020092;28;20514;-66
2023/12/26 08:11:31;;;;;;;6.80;3.70;;;8.70;99.90;;;;;;5020045;28;20546;-66
2023/12/26 08:13:58;;;;;;;8.63;2.70;;;8.70;99.90;;;;;;5020342;28;20467;-65
2023/12/26 08:16:26;;;;;;;8.70;2.87;;;8.70;99.90;;;;;;5019941;28;20519;-65
2023/12/26 08:18:56;;;;;;;9.03;2.90;;;8.70;99.90;;;;;;5019609;28;20542;-66
2023/12/26 08:21:24;;;;;;;9.23;3.30;;;8.70;99.90;;;;;;5019322;28;20473;-65
2023/12/26 08:23:51;;;;;;;9.27;2.77;;;8.70;99.90;;;;;;5019990;28;20780;-65
2023/12/26 08:26:21;;;;;;;7.00;3.60;;;8.70;99.90;;;;;;5020002;28;20472;-66
2023/12/26 08:28:49;;;;;;;5.10;3.13;;;8.60;99.90;;;;;;5020281;28;20470;-66
2023/12/26 08:31:17;;;;;;;5.00;2.20;;;8.60;99.90;;;;;;5019737;28;20499;-66
2023/12/26 08:33:44;;;;;;;7.20;2.30;;;8.60;99.90;;;;;;5019823;28;20816;-65
2023/12/26 08:36:11;;;;;;;6.73;2.43;;;8.60;99.90;;;;;;5019077;28;20468;-66
2023/12/26 08:38:39;;;;;;;6.23;2.30;;;8.60;99.90;;;;;;5018753;28;20472;-65
2023/12/26 08:41:09;;;;;;;6.50;2.37;;;8.60;99.90;;;;;;5019759;28;20947;-64
2023/12/26 08:43:38;;;;;;;8.37;2.57;;;8.50;99.90;;;;;;5019790;28;20515;-65
2023/12/26 08:46:06;;;;;;;7.93;2.70;;;8.60;99.90;;;;;;5012858;28;20519;-66
2023/12/26 08:48:34;;;;;;;4.20;2.77;;;8.60;99.90;;;;;;5013475;28;20474;-66
2023/12/26 08:51:04;;;;;;;6.30;3.07;;;8.60;99.90;;;;;;5013040;28;20521;-65
2023/12/26 08:53:32;;;;;;;6.80;2.67;;;8.60;99.90;;;;;;5013268;28;20472;-66
2023/12/26 08:56:03;;;;;;;9.57;2.63;;;8.60;99.90;;;;;;5018493;28;20462;-66
2023/12/26 08:58:33;;;;;;;7.60;2.40;;;8.60;99.90;;;;;;5019718;28;20472;-66
2023/12/26 09:01:02;;;;;;;4.77;2.50;;;8.60;99.90;;;;;;5018505;28;20464;-66
2023/12/26 09:03:29;;;;;;;6.60;2.70;;;8.60;99.90;;;;;;5018797;28;20463;-67
2023/12/26 09:05:57;;;;;;;5.97;2.87;;;8.50;99.90;;;;;;5018398;28;20522;-65
2023/12/26 09:08:27;;;;;;;6.63;2.57;;;8.60;99.90;;;;;;5019470;28;20861;-66
2023/12/26 09:10:54;;;;;;;4.53;2.30;;;8.60;99.90;;;;;;5018540;28;20464;-66
2023/12/26 09:13:26;;;;;;;6.43;3.03;;;8.60;99.90;;;;;;5018577;28;20590;-66
2023/12/26 09:15:53;;;;;;;6.43;2.40;;;8.60;99.90;;;;;;5018719;28;20885;-68
2023/12/26 09:18:22;;;;;;;4.63;2.50;;;8.60;99.90;;;;;;5017456;28;20496;-66
2023/12/26 09:20:49;;;;;;;6.77;2.40;;;8.60;99.90;;;;;;5018066;28;20463;-65
2023/12/26 09:23:18;;;;;;;6.10;2.30;;;8.60;99.90;;;;;;5019060;28;20866;-67
2023/12/26 09:25:46;;;;;;;4.93;2.33;;;8.60;99.90;;;;;;5019014;28;20866;-66
2023/12/26 09:28:13;;;;;;;6.70;2.60;;;8.70;99.90;;;;;;5018957;28;20472;-67
2023/12/26 09:30:42;;;;;;;6.90;3.23;;;8.70;99.90;;;;;;5018134;28;20516;-66
2023/12/26 09:33:10;;;;;;;8.23;2.53;;;8.70;99.90;;;;;;5017187;28;20566;-65
2023/12/26 09:35:38;;;;;;;8.20;2.93;;;8.80;99.90;;;;;;5017821;28;20877;-66
2023/12/26 09:38:06;;;;;;;6.43;2.70;;;8.90;99.90;;;;;;5018011;28;20468;-66
2023/12/26 09:40:34;;;;;;;8.30;2.63;;;8.90;99.90;;;;;;5018750;28;20472;-66
2023/12/26 09:43:04;;;;;;;6.53;2.47;;;9.00;99.90;;;;;;5018538;28;20873;-65
2023/12/26 09:45:32;;;;;;;12.00;3.13;;;8.90;99.90;;;;;;5017993;28;20467;-65
2023/12/26 09:48:00;;;;;;;7.60;2.83;;;8.80;17.90;;;;;;5018470;28;20463;-65
2023/12/26 09:50:27;;;;;;;8.37;2.57;;;8.70;99.90;;;;;;5018643;28;20889;-66
2023/12/26 09:53:01;;;;;;;10.50;2.77;;;8.70;1.00;;;;;;5017925;28;20470;-66
2023/12/26 09:55:29;;;;;;;6.50;2.63;;;8.60;1.00;;;;;;5018137;28;20470;-66
2023/12/26 09:57:58;;;;;;;5.33;2.50;;;8.60;1.00;;;;;;5016807;28;20464;-65
2023/12/26 10:00:27;;;;;;;7.27;2.90;;;8.70;99.90;;;;;;5018067;28;20838;-65
2023/12/26 10:02:55;;;;;;;9.40;3.47;;;8.70;1.00;;;;;;5017502;28;20533;-65
2023/12/26 10:05:23;;;;;;;4.73;2.33;;;8.80;99.90;;;;;;5017281;28;20526;-67
2023/12/26 10:07:50;;;;;;;8.80;3.20;;;8.80;99.90;;;;;;5018014;28;20518;-65
2023/12/26 10:10:20;;;;;;;12.80;3.40;;;8.90;99.90;;;;;;5017561;28;20551;-65
2023/12/26 10:12:48;;;;;;;9.03;3.40;;;8.90;1.00;;;;;;5018060;28;20487;-64
2023/12/26 10:15:16;;;;;;;7.70;2.90;;;9.00;25.80;;;;;;5017975;28;20478;-66
2023/12/26 10:17:44;;;;;;;8.83;3.47;;;9.00;1.00;;;;;;5017534;28;20472;-65
2023/12/26 10:20:13;;;;;;;7.90;3.23;;;9.20;1.00;;;;;;5017700;28;20545;-65
2023/12/26 10:22:43;;;;;;;6.80;3.27;;;9.20;99.90;;;;;;5016221;28;20492;-66
2023/12/26 10:25:10;;;;;;;9.10;3.43;;;9.20;33.50;;;;;;5009350;28;20464;-64
2023/12/26 10:27:40;;;;;;;7.50;3.80;;;9.10;1.00;;;;;;5015200;28;20513;-65
2023/12/26 10:30:08;;;;;;;8.13;3.30;;;9.10;1.00;;;;;;5009353;28;20460;-65
2023/12/26 10:32:36;;;;;;;8.43;3.73;;;9.10;1.00;;;;;;5008702;28;20504;-66
2023/12/26 10:35:14;;;;;;;8.20;3.90;;;9.00;1.00;;;;;;5013083;28;20463;-64
2023/12/26 10:37:42;;;;;;;6.37;3.83;;;9.10;99.90;;;;;;5011415;28;20471;-65
2023/12/26 10:40:10;;;;;;;7.40;3.87;;;9.20;1.00;;;;;;5016556;28;20459;-64
2023/12/26 10:42:40;;;;;;;8.33;3.93;;;9.30;1.00;;;;;;5017322;28;20460;-64
2023/12/26 10:45:10;;;;;;;11.40;4.00;;;9.40;1.00;;;;;;5016677;28;20558;-63
2023/12/26 10:47:43;;;;;;;10.30;3.80;;;9.30;99.90;;;;;;5017240;28;20560;-66
2023/12/26 10:50:10;;;;;;;10.30;4.37;;;9.10;67.60;;;;;;5017142;28;20468;-66
2023/12/26 10:52:42;;;;;;;6.00;3.50;;;9.00;1.00;;;;;;5017490;28;20594;-65
2023/12/26 10:55:18;;;;;;;9.23;3.67;;;8.90;99.90;;;;;;5017116;28;20562;-64
2023/12/26 10:57:48;;;;;;;9.87;3.80;;;8.70;1.00;;;;;;5017344;28;20515;-64
2023/12/26 11:00:49;;;;;;;9.43;4.20;;;8.60;1.00;;;;;;5017413;28;20472;-65
2023/12/26 13:51:36;;;;;;;10.67;3.60;;;8.00;99.90;;;;;;5017152;28;20498;-63
2023/12/26 13:54:10;;;;;;;8.30;3.60;;;8.00;99.90;;;;;;5017355;28;20488;-63
2023/12/26 13:56:43;;;;;;;7.50;3.43;;;7.90;99.90;;;;;;5011648;28;20463;-63
2023/12/26 13:59:23;;;;;;;10.47;3.50;;;7.90;99.90;;;;;;5017777;28;20571;-63
2023/12/26 14:01:54;;;;;;;8.83;3.00;;;8.00;99.90;;;;;;5017309;28;20495;-63
2023/12/26 14:04:21;;;;;;;8.73;3.10;;;8.00;99.90;;;;;;5017669;28;20468;-64
2023/12/26 14:06:51;;;;;;;7.63;3.03;;;8.10;99.90;;;;;;5017845;28;20522;-63
2023/12/26 14:09:19;;;;;;;9.60;3.60;;;8.10;99.90;;;;;;5017584;28;20475;-63
2023/12/26 14:11:46;;;;;;;5.73;2.83;;;8.20;99.90;;;;;;5018170;28;20467;-64
2023/12/26 14:14:14;;;;;;;7.80;3.17;;;8.20;11.20;;;;;;5016949;28;20588;-63
2023/12/26 14:16:41;;;;;;;7.70;2.60;;;8.20;89.90;;;;;;5016929;28;20471;-64
2023/12/26 14:19:08;;;;;;;9.53;3.83;;;8.20;99.90;;;;;;5016818;28;20498;-63
2023/12/26 14:21:36;;;;;;;10.80;3.53;;;8.20;99.90;;;;;;5016796;28;20460;-63
2023/12/26 14:24:05;;;;;;;10.30;3.87;;;8.10;99.90;;;;;;5016251;28;20887;-63
2023/12/26 14:26:34;;;;;;;8.00;2.90;;;8.10;99.90;;;;;;5017240;28;20495;-63
2023/12/26 14:29:02;;;;;;;12.40;3.17;;;8.10;99.90;;;;;;5017712;28;20960;-63
2023/12/26 14:31:29;;;;;;;8.73;3.30;;;8.00;99.90;;;;;;5017330;28;20493;-63
2023/12/26 14:33:57;;;;;;;9.73;3.07;;;8.00;99.90;;;;;;5016905;28;20503;-63
2023/12/26 14:36:24;;;;;;;8.93;3.10;;;8.00;99.90;;;;;;5017360;28;20779;-63
2023/12/26 14:38:52;;;;;;;11.87;4.50;;;7.90;99.90;;;;;;5015070;28;20483;-63
2023/12/26 14:41:20;;;;;;;8.90;3.23;;;7.80;99.90;;;;;;5015988;28;20510;-64
2023/12/26 14:43:49;;;;;;;6.23;3.60;;;7.80;99.90;;;;;;5015240;28;20456;-63
2023/12/26 14:46:17;;;;;;;7.70;3.30;;;7.90;99.90;;;;;;5015402;28;20901;-63
2023/12/26 14:48:44;;;;;;;8.10;3.80;;;7.90;99.90;;;;;;5015175;28;20591;-64
2023/12/26 14:51:12;;;;;;;11.37;3.50;;;7.80;1.00;;;;;;5016130;28;20755;-64
2023/12/26 14:53:39;;;;;;;6.70;3.60;;;7.80;2.10;;;;;;5016617;28;20519;-63
2023/12/26 14:56:06;;;;;;;8.27;3.73;;;7.80;8.20;;;;;;5017127;28;20468;-62
2023/12/26 14:58:35;;;;;;;10.00;4.40;;;7.80;17.70;;;;;;5016591;28;20475;-63
2023/12/26 15:01:04;;;;;;;10.50;3.60;;;7.80;94.70;;;;;;5017033;28;20489;-66
2023/12/26 15:03:31;;;;;;;12.27;4.03;;;7.90;18.30;;;;;;5017139;28;20880;-66
2023/12/26 15:05:59;;;;;;;9.07;4.10;;;8.20;86.60;;;;;;5017192;28;20510;-65
2023/12/26 15:08:26;;;;;;;12.10;4.17;;;8.20;1.00;;;;;;5005165;28;20456;-65
2023/12/26 15:10:54;;;;;;;10.33;4.10;;;8.30;1.00;;;;;;5016777;28;20463;-65
2023/12/26 15:13:22;;;;;;;7.50;3.97;;;8.30;99.90;;;;;;5016839;28;20848;-66
2023/12/26 15:15:51;;;;;;;9.40;4.03;;;8.40;99.90;;;;;;5014708;28;20466;-65
2023/12/26 15:18:18;;;;;;;14.40;5.17;;;8.40;99.90;;;;;;5015252;28;20740;-66
2023/12/26 15:20:46;;;;;;;10.63;4.53;;;8.40;99.90;;;;;;5006329;28;20891;-65
2023/12/26 15:23:13;;;;;;;7.20;3.70;;;8.50;99.90;;;;;;5006853;28;20751;-67
2023/12/26 15:25:41;;;;;;;9.30;4.23;;;8.50;99.90;;;;;;5010600;28;20452;-64
2023/12/26 15:28:08;;;;;;;8.67;4.30;;;8.40;99.90;;;;;;5014411;28;20452;-63
2023/12/26 15:30:36;;;;;;;10.60;4.60;;;8.30;99.90;;;;;;5014402;28;20456;-63
2023/12/26 15:33:05;;;;;;;10.30;4.70;;;8.30;99.90;;;;;;5016903;28;21052;-63
2023/12/26 15:35:32;;;;;;;11.97;4.90;;;8.30;99.90;;;;;;5018428;28;20471;-63
2023/12/26 15:38:00;;;;;;;13.83;4.40;;;8.20;99.90;;;;;;5016801;28;20472;-65
2023/12/26 15:40:27;;;;;;;14.53;5.53;;;8.20;1.00;;;;;;5016018;28;20455;-64
2023/12/26 15:42:54;;;;;;;11.37;5.13;;;8.20;99.90;;;;;;5017436;28;20452;-64
2023/12/26 15:45:22;;;;;;;9.47;4.50;;;8.20;1.00;;;;;;5017410;28;20578;-64
2023/12/26 15:47:50;;;;;;;14.67;4.57;;;8.20;1.00;;;;;;5017536;28;20746;-65